sensor_id;sensor_type;location;lat;lon;timestamp;P1;durP1;ratioP1;P2;durP2;ratioP2
41436;SDS011;27178;49.460;10.850;2024-03-08T00:00:17;16.63;;;14.97;;
41436;SDS011;27178;49.460;10.850;2024-03-08T00:02:48;17.30;;;15.50;;
41436;SDS011;27178;49.460;10.850;2024-03-08T00:05:17;17.83;;;14.47;;
41436;SDS011;27178;49.460;10.850;2024-03-08T00:07:46;16.90;;;15.10;;
41436;SDS011;27178;49.460;10.850;2024-03-08T00:10:14;16.80;;;15.10;;
41436;SDS011;27178;49.460;10.850;2024-03-08T00:12:44;15.57;;;13.97;;
41436;SDS011;27178;49.460;10.850;2024-03-08T00:15:13;17.00;;;15.20;;
41436;SDS011;27178;49.460;10.850;2024-03-08T00:17:45;16.87;;;15.07;;
41436;SDS011;27178;49.460;10.850;2024-03-08T00:20:15;16.63;;;15.00;;
41436;SDS011;27178;49.460;10.850;2024-03-08T00:22:45;16.93;;;15.27;;
41436;SDS011;27178;49.460;10.850;2024-03-08T00:25:14;17.80;;;16.00;;
41436;SDS011;27178;49.460;10.850;2024-03-08T00:27:43;17.20;;;15.40;;
41436;SDS011;27178;49.460;10.850;2024-03-08T00:30:11;16.60;;;15.00;;
41436;SDS011;27178;49.460;10.850;2024-03-08T00:32:40;17.77;;;15.57;;
41436;SDS011;27178;49.460;10.850;2024-03-08T00:35:10;18.20;;;16.10;;
41436;SDS011;27178;49.460;10.850;2024-03-08T00:37:39;17.83;;;15.93;;
41436;SDS011;27178;49.460;10.850;2024-03-08T00:40:08;17.73;;;15.83;;
41436;SDS011;27178;49.460;10.850;2024-03-08T00:42:37;18.30;;;16.07;;
41436;SDS011;27178;49.460;10.850;2024-03-08T00:45:06;20.90;;;15.60;;
41436;SDS011;27178;49.460;10.850;2024-03-08T00:47:37;17.63;;;15.83;;
41436;SDS011;27178;49.460;10.850;2024-03-08T00:50:06;18.53;;;16.37;;
41436;SDS011;27178;49.460;10.850;2024-03-08T00:52:36;18.63;;;16.73;;
41436;SDS011;27178;49.460;10.850;2024-03-08T00:55:04;17.87;;;15.43;;
41436;SDS011;27178;49.460;10.850;2024-03-08T00:57:34;17.80;;;15.97;;
41436;SDS011;27178;49.460;10.850;2024-03-08T01:00:03;18.33;;;16.33;;
41436;SDS011;27178;49.460;10.850;2024-03-08T01:02:36;17.80;;;16.07;;
41436;SDS011;27178;49.460;10.850;2024-03-08T01:05:04;17.67;;;15.73;;
41436;SDS011;27178;49.460;10.850;2024-03-08T01:07:33;16.90;;;15.10;;
41436;SDS011;27178;49.460;10.850;2024-03-08T01:10:05;17.17;;;15.57;;
41436;SDS011;27178;49.460;10.850;2024-03-08T01:12:36;16.83;;;15.20;;
41436;SDS011;27178;49.460;10.850;2024-03-08T01:15:05;16.63;;;14.93;;
41436;SDS011;27178;49.460;10.850;2024-03-08T01:17:33;17.10;;;15.40;;
41436;SDS011;27178;49.460;10.850;2024-03-08T01:20:03;16.27;;;14.67;;
41436;SDS011;27178;49.460;10.850;2024-03-08T01:22:32;17.27;;;15.43;;
41436;SDS011;27178;49.460;10.850;2024-03-08T01:25:00;17.23;;;15.43;;
41436;SDS011;27178;49.460;10.850;2024-03-08T01:27:32;16.93;;;15.23;;
41436;SDS011;27178;49.460;10.850;2024-03-08T01:30:01;17.23;;;15.40;;
41436;SDS011;27178;49.460;10.850;2024-03-08T01:32:31;17.37;;;15.57;;
41436;SDS011;27178;49.460;10.850;2024-03-08T01:35:00;16.83;;;15.13;;
41436;SDS011;27178;49.460;10.850;2024-03-08T01:37:29;18.27;;;16.30;;
41436;SDS011;27178;49.460;10.850;2024-03-08T01:39:57;17.87;;;16.07;;
41436;SDS011;27178;49.460;10.850;2024-03-08T01:42:26;17.53;;;15.80;;
41436;SDS011;27178;49.460;10.850;2024-03-08T01:44:55;17.60;;;15.80;;
41436;SDS011;27178;49.460;10.850;2024-03-08T01:47:24;17.10;;;15.40;;
41436;SDS011;27178;49.460;10.850;2024-03-08T01:49:53;16.90;;;15.13;;
41436;SDS011;27178;49.460;10.850;2024-03-08T01:52:21;17.00;;;15.20;;
41436;SDS011;27178;49.460;10.850;2024-03-08T01:54:51;18.23;;;15.93;;
41436;SDS011;27178;49.460;10.850;2024-03-08T01:57:20;17.77;;;15.87;;
41436;SDS011;27178;49.460;10.850;2024-03-08T01:59:49;18.60;;;16.60;;
41436;SDS011;27178;49.460;10.850;2024-03-08T02:02:22;17.03;;;15.23;;
41436;SDS011;27178;49.460;10.850;2024-03-08T02:04:50;17.27;;;15.57;;
41436;SDS011;27178;49.460;10.850;2024-03-08T02:07:19;18.70;;;16.73;;
41436;SDS011;27178;49.460;10.850;2024-03-08T02:09:49;19.07;;;17.13;;
41436;SDS011;27178;49.460;10.850;2024-03-08T02:12:17;18.13;;;16.27;;
41436;SDS011;27178;49.460;10.850;2024-03-08T02:14:47;18.03;;;15.77;;
41436;SDS011;27178;49.460;10.850;2024-03-08T02:17:16;18.73;;;16.70;;
41436;SDS011;27178;49.460;10.850;2024-03-08T02:19:45;17.70;;;15.90;;
41436;SDS011;27178;49.460;10.850;2024-03-08T02:22:15;18.43;;;16.53;;
41436;SDS011;27178;49.460;10.850;2024-03-08T02:24:44;18.50;;;16.63;;
41436;SDS011;27178;49.460;10.850;2024-03-08T02:27:12;17.87;;;16.07;;
41436;SDS011;27178;49.460;10.850;2024-03-08T02:29:41;18.17;;;16.27;;
41436;SDS011;27178;49.460;10.850;2024-03-08T02:32:11;17.53;;;15.73;;
41436;SDS011;27178;49.460;10.850;2024-03-08T02:34:39;18.40;;;16.50;;
41436;SDS011;27178;49.460;10.850;2024-03-08T02:37:08;19.23;;;17.23;;
41436;SDS011;27178;49.460;10.850;2024-03-08T02:39:40;17.70;;;15.93;;
41436;SDS011;27178;49.460;10.850;2024-03-08T02:42:08;17.60;;;15.80;;
41436;SDS011;27178;49.460;10.850;2024-03-08T02:44:36;17.03;;;15.33;;
41436;SDS011;27178;49.460;10.850;2024-03-08T02:47:05;17.43;;;15.53;;
41436;SDS011;27178;49.460;10.850;2024-03-08T02:49:33;17.77;;;15.97;;
41436;SDS011;27178;49.460;10.850;2024-03-08T02:52:03;20.63;;;14.87;;
41436;SDS011;27178;49.460;10.850;2024-03-08T02:54:33;18.07;;;15.63;;
41436;SDS011;27178;49.460;10.850;2024-03-08T02:57:04;16.83;;;15.03;;
41436;SDS011;27178;49.460;10.850;2024-03-08T02:59:34;18.00;;;16.10;;
41436;SDS011;27178;49.460;10.850;2024-03-08T03:02:06;18.90;;;16.90;;
41436;SDS011;27178;49.460;10.850;2024-03-08T03:04:36;17.67;;;15.77;;
41436;SDS011;27178;49.460;10.850;2024-03-08T03:07:07;17.53;;;15.53;;
41436;SDS011;27178;49.460;10.850;2024-03-08T03:09:35;17.80;;;16.00;;
41436;SDS011;27178;49.460;10.850;2024-03-08T03:12:05;16.53;;;14.90;;
41436;SDS011;27178;49.460;10.850;2024-03-08T03:14:35;18.83;;;15.63;;
41436;SDS011;27178;49.460;10.850;2024-03-08T03:17:04;19.03;;;17.07;;
41436;SDS011;27178;49.460;10.850;2024-03-08T03:19:33;17.43;;;15.57;;
41436;SDS011;27178;49.460;10.850;2024-03-08T03:22:02;18.30;;;16.30;;
41436;SDS011;27178;49.460;10.850;2024-03-08T03:24:32;17.93;;;16.13;;
41436;SDS011;27178;49.460;10.850;2024-03-08T03:27:01;19.33;;;17.17;;
41436;SDS011;27178;49.460;10.850;2024-03-08T03:29:38;17.77;;;15.77;;
41436;SDS011;27178;49.460;10.850;2024-03-08T03:32:08;18.10;;;16.10;;
41436;SDS011;27178;49.460;10.850;2024-03-08T03:34:38;20.50;;;18.30;;
41436;SDS011;27178;49.460;10.850;2024-03-08T03:37:07;20.27;;;17.60;;
41436;SDS011;27178;49.460;10.850;2024-03-08T03:39:39;18.60;;;16.67;;
41436;SDS011;27178;49.460;10.850;2024-03-08T03:42:15;18.70;;;16.77;;
41436;SDS011;27178;49.460;10.850;2024-03-08T03:44:46;19.40;;;17.33;;
41436;SDS011;27178;49.460;10.850;2024-03-08T03:47:14;21.17;;;17.23;;
41436;SDS011;27178;49.460;10.850;2024-03-08T03:49:43;18.77;;;16.87;;
41436;SDS011;27178;49.460;10.850;2024-03-08T03:52:12;21.93;;;17.07;;
41436;SDS011;27178;49.460;10.850;2024-03-08T03:54:41;18.87;;;16.87;;
41436;SDS011;27178;49.460;10.850;2024-03-08T03:57:09;17.97;;;16.17;;
41436;SDS011;27178;49.460;10.850;2024-03-08T03:59:39;20.00;;;16.57;;
41436;SDS011;27178;49.460;10.850;2024-03-08T04:02:10;18.87;;;16.87;;
41436;SDS011;27178;49.460;10.850;2024-03-08T04:04:38;19.57;;;17.57;;
41436;SDS011;27178;49.460;10.850;2024-03-08T04:07:07;18.67;;;16.73;;
41436;SDS011;27178;49.460;10.850;2024-03-08T04:09:36;18.80;;;16.90;;
41436;SDS011;27178;49.460;10.850;2024-03-08T04:12:04;18.97;;;16.93;;
41436;SDS011;27178;49.460;10.850;2024-03-08T04:14:33;18.33;;;16.40;;
41436;SDS011;27178;49.460;10.850;2024-03-08T04:17:02;21.17;;;16.90;;
41436;SDS011;27178;49.460;10.850;2024-03-08T04:19:31;19.40;;;16.90;;
41436;SDS011;27178;49.460;10.850;2024-03-08T04:22:01;19.97;;;16.50;;
41436;SDS011;27178;49.460;10.850;2024-03-08T04:24:29;19.27;;;17.27;;
41436;SDS011;27178;49.460;10.850;2024-03-08T04:26:57;19.70;;;16.43;;
41436;SDS011;27178;49.460;10.850;2024-03-08T04:29:26;18.23;;;16.37;;
41436;SDS011;27178;49.460;10.850;2024-03-08T04:31:55;19.03;;;17.03;;
41436;SDS011;27178;49.460;10.850;2024-03-08T04:34:23;19.33;;;16.57;;
41436;SDS011;27178;49.460;10.850;2024-03-08T04:36:52;17.77;;;15.97;;
41436;SDS011;27178;49.460;10.850;2024-03-08T04:39:21;17.97;;;16.10;;
41436;SDS011;27178;49.460;10.850;2024-03-08T04:41:49;18.73;;;16.77;;
41436;SDS011;27178;49.460;10.850;2024-03-08T04:44:18;19.77;;;17.67;;
41436;SDS011;27178;49.460;10.850;2024-03-08T04:46:47;19.17;;;17.13;;
41436;SDS011;27178;49.460;10.850;2024-03-08T04:49:15;19.87;;;17.77;;
41436;SDS011;27178;49.460;10.850;2024-03-08T04:51:44;18.27;;;16.47;;
41436;SDS011;27178;49.460;10.850;2024-03-08T04:54:13;19.13;;;17.20;;
41436;SDS011;27178;49.460;10.850;2024-03-08T04:56:42;19.40;;;16.83;;
41436;SDS011;27178;49.460;10.850;2024-03-08T04:59:10;19.10;;;17.17;;
41436;SDS011;27178;49.460;10.850;2024-03-08T05:01:39;19.60;;;16.97;;
41436;SDS011;27178;49.460;10.850;2024-03-08T05:04:07;19.10;;;17.13;;
41436;SDS011;27178;49.460;10.850;2024-03-08T05:06:36;17.93;;;16.07;;
41436;SDS011;27178;49.460;10.850;2024-03-08T05:09:04;20.17;;;17.47;;
41436;SDS011;27178;49.460;10.850;2024-03-08T05:11:42;19.40;;;17.40;;
41436;SDS011;27178;49.460;10.850;2024-03-08T05:14:11;19.33;;;17.40;;
41436;SDS011;27178;49.460;10.850;2024-03-08T05:16:43;18.17;;;16.27;;
41436;SDS011;27178;49.460;10.850;2024-03-08T05:19:15;20.23;;;17.93;;
41436;SDS011;27178;49.460;10.850;2024-03-08T05:21:44;18.23;;;16.43;;
41436;SDS011;27178;49.460;10.850;2024-03-08T05:24:12;20.40;;;17.47;;
41436;SDS011;27178;49.460;10.850;2024-03-08T05:26:43;18.93;;;16.93;;
41436;SDS011;27178;49.460;10.850;2024-03-08T05:29:12;19.90;;;17.80;;
41436;SDS011;27178;49.460;10.850;2024-03-08T05:31:43;19.77;;;17.67;;
41436;SDS011;27178;49.460;10.850;2024-03-08T05:34:14;18.90;;;16.90;;
41436;SDS011;27178;49.460;10.850;2024-03-08T05:36:43;19.90;;;17.80;;
41436;SDS011;27178;49.460;10.850;2024-03-08T05:39:12;18.43;;;16.53;;
41436;SDS011;27178;49.460;10.850;2024-03-08T05:41:43;19.40;;;17.33;;
41436;SDS011;27178;49.460;10.850;2024-03-08T05:44:12;19.63;;;17.67;;
41436;SDS011;27178;49.460;10.850;2024-03-08T05:46:40;20.57;;;18.47;;
41436;SDS011;27178;49.460;10.850;2024-03-08T05:49:09;20.23;;;18.10;;
41436;SDS011;27178;49.460;10.850;2024-03-08T05:51:39;20.80;;;18.70;;
41436;SDS011;27178;49.460;10.850;2024-03-08T05:54:08;20.27;;;17.83;;
41436;SDS011;27178;49.460;10.850;2024-03-08T05:56:43;21.17;;;18.97;;
41436;SDS011;27178;49.460;10.850;2024-03-08T05:59:11;22.03;;;19.73;;
41436;SDS011;27178;49.460;10.850;2024-03-08T06:01:40;20.47;;;18.27;;
41436;SDS011;27178;49.460;10.850;2024-03-08T06:04:09;20.77;;;18.67;;
41436;SDS011;27178;49.460;10.850;2024-03-08T06:06:38;21.40;;;19.07;;
41436;SDS011;27178;49.460;10.850;2024-03-08T06:09:07;21.80;;;19.43;;
41436;SDS011;27178;49.460;10.850;2024-03-08T06:11:39;21.20;;;18.93;;
41436;SDS011;27178;49.460;10.850;2024-03-08T06:14:09;21.70;;;19.10;;
41436;SDS011;27178;49.460;10.850;2024-03-08T06:16:37;19.87;;;17.83;;
41436;SDS011;27178;49.460;10.850;2024-03-08T06:19:06;21.70;;;19.43;;
41436;SDS011;27178;49.460;10.850;2024-03-08T06:21:34;21.27;;;18.60;;
41436;SDS011;27178;49.460;10.850;2024-03-08T06:24:02;22.90;;;19.03;;
41436;SDS011;27178;49.460;10.850;2024-03-08T06:26:31;22.60;;;19.77;;
41436;SDS011;27178;49.460;10.850;2024-03-08T06:29:02;21.40;;;19.10;;
41436;SDS011;27178;49.460;10.850;2024-03-08T06:31:34;22.03;;;19.60;;
41436;SDS011;27178;49.460;10.850;2024-03-08T06:34:06;21.03;;;18.83;;
41436;SDS011;27178;49.460;10.850;2024-03-08T06:36:35;22.13;;;19.83;;
41436;SDS011;27178;49.460;10.850;2024-03-08T06:39:04;22.43;;;20.13;;
41436;SDS011;27178;49.460;10.850;2024-03-08T06:41:36;21.03;;;18.90;;
41436;SDS011;27178;49.460;10.850;2024-03-08T06:44:05;20.07;;;18.00;;
41436;SDS011;27178;49.460;10.850;2024-03-08T06:46:36;22.50;;;20.10;;
41436;SDS011;27178;49.460;10.850;2024-03-08T06:49:05;23.07;;;19.53;;
41436;SDS011;27178;49.460;10.850;2024-03-08T06:51:34;23.27;;;20.40;;
41436;SDS011;27178;49.460;10.850;2024-03-08T06:54:02;23.17;;;20.77;;
41436;SDS011;27178;49.460;10.850;2024-03-08T06:56:35;25.27;;;20.10;;
41436;SDS011;27178;49.460;10.850;2024-03-08T06:59:04;22.80;;;20.43;;
41436;SDS011;27178;49.460;10.850;2024-03-08T07:01:33;22.80;;;20.47;;
41436;SDS011;27178;49.460;10.850;2024-03-08T07:04:04;23.77;;;20.90;;
41436;SDS011;27178;49.460;10.850;2024-03-08T07:06:33;24.33;;;21.30;;
41436;SDS011;27178;49.460;10.850;2024-03-08T07:09:01;24.73;;;21.33;;
41436;SDS011;27178;49.460;10.850;2024-03-08T07:11:29;23.30;;;20.83;;
41436;SDS011;27178;49.460;10.850;2024-03-08T07:13:58;22.93;;;20.40;;
41436;SDS011;27178;49.460;10.850;2024-03-08T07:16:32;23.33;;;20.93;;
41436;SDS011;27178;49.460;10.850;2024-03-08T07:19:01;22.97;;;20.60;;
41436;SDS011;27178;49.460;10.850;2024-03-08T07:21:33;25.37;;;20.63;;
41436;SDS011;27178;49.460;10.850;2024-03-08T07:24:01;24.60;;;21.27;;
41436;SDS011;27178;49.460;10.850;2024-03-08T07:26:51;23.90;;;21.40;;
41436;SDS011;27178;49.460;10.850;2024-03-08T07:29:19;23.10;;;20.13;;
41436;SDS011;27178;49.460;10.850;2024-03-08T07:31:48;24.03;;;21.53;;
41436;SDS011;27178;49.460;10.850;2024-03-08T07:34:27;25.63;;;22.67;;
41436;SDS011;27178;49.460;10.850;2024-03-08T07:37:00;23.17;;;20.77;;
41436;SDS011;27178;49.460;10.850;2024-03-08T07:39:33;23.10;;;20.70;;
41436;SDS011;27178;49.460;10.850;2024-03-08T07:42:07;22.77;;;20.40;;
41436;SDS011;27178;49.460;10.850;2024-03-08T07:44:36;23.73;;;21.17;;
41436;SDS011;27178;49.460;10.850;2024-03-08T07:47:05;24.20;;;21.70;;
41436;SDS011;27178;49.460;10.850;2024-03-08T07:49:36;22.83;;;20.33;;
41436;SDS011;27178;49.460;10.850;2024-03-08T07:52:06;25.20;;;22.13;;
41436;SDS011;27178;49.460;10.850;2024-03-08T07:54:34;21.30;;;19.10;;
41436;SDS011;27178;49.460;10.850;2024-03-08T07:57:02;21.93;;;19.63;;
41436;SDS011;27178;49.460;10.850;2024-03-08T07:59:31;23.43;;;21.13;;
41436;SDS011;27178;49.460;10.850;2024-03-08T08:01:59;21.57;;;19.13;;
41436;SDS011;27178;49.460;10.850;2024-03-08T08:04:27;24.17;;;21.63;;
41436;SDS011;27178;49.460;10.850;2024-03-08T08:06:56;22.50;;;19.60;;
41436;SDS011;27178;49.460;10.850;2024-03-08T08:09:26;24.40;;;21.80;;
41436;SDS011;27178;49.460;10.850;2024-03-08T08:12:01;23.97;;;21.43;;
41436;SDS011;27178;49.460;10.850;2024-03-08T08:14:30;24.00;;;20.83;;
41436;SDS011;27178;49.460;10.850;2024-03-08T08:16:58;22.70;;;20.27;;
41436;SDS011;27178;49.460;10.850;2024-03-08T08:19:30;23.30;;;20.80;;
41436;SDS011;27178;49.460;10.850;2024-03-08T08:22:00;22.80;;;20.27;;
41436;SDS011;27178;49.460;10.850;2024-03-08T08:24:30;21.80;;;19.53;;
41436;SDS011;27178;49.460;10.850;2024-03-08T08:26:58;22.17;;;19.33;;
41436;SDS011;27178;49.460;10.850;2024-03-08T08:29:27;24.63;;;21.77;;
41436;SDS011;27178;49.460;10.850;2024-03-08T08:31:57;22.57;;;20.27;;
41436;SDS011;27178;49.460;10.850;2024-03-08T08:34:28;23.90;;;19.93;;
41436;SDS011;27178;49.460;10.850;2024-03-08T08:36:57;21.20;;;19.00;;
41436;SDS011;27178;49.460;10.850;2024-03-08T08:39:26;20.83;;;18.83;;
41436;SDS011;27178;49.460;10.850;2024-03-08T08:41:55;20.57;;;18.40;;
41436;SDS011;27178;49.460;10.850;2024-03-08T08:44:24;21.67;;;19.03;;
41436;SDS011;27178;49.460;10.850;2024-03-08T08:46:53;21.10;;;18.90;;
41436;SDS011;27178;49.460;10.850;2024-03-08T08:49:31;20.27;;;18.17;;
41436;SDS011;27178;49.460;10.850;2024-03-08T08:51:59;21.40;;;19.20;;
41436;SDS011;27178;49.460;10.850;2024-03-08T08:54:41;19.40;;;17.30;;
41436;SDS011;27178;49.460;10.850;2024-03-08T08:57:16;20.43;;;18.27;;
41436;SDS011;27178;49.460;10.850;2024-03-08T08:59:44;19.53;;;17.53;;
41436;SDS011;27178;49.460;10.850;2024-03-08T09:02:13;19.40;;;17.20;;
41436;SDS011;27178;49.460;10.850;2024-03-08T09:04:44;19.20;;;17.20;;
41436;SDS011;27178;49.460;10.850;2024-03-08T09:07:12;18.90;;;17.00;;
41436;SDS011;27178;49.460;10.850;2024-03-08T09:09:41;23.30;;;20.90;;
41436;SDS011;27178;49.460;10.850;2024-03-08T09:12:09;22.30;;;20.00;;
41436;SDS011;27178;49.460;10.850;2024-03-08T09:14:41;20.37;;;18.23;;
41436;SDS011;27178;49.460;10.850;2024-03-08T09:17:11;18.37;;;16.37;;
41436;SDS011;27178;49.460;10.850;2024-03-08T09:19:43;18.47;;;16.47;;
41436;SDS011;27178;49.460;10.850;2024-03-08T09:22:12;19.43;;;17.43;;
41436;SDS011;27178;49.460;10.850;2024-03-08T09:24:40;18.37;;;16.47;;
41436;SDS011;27178;49.460;10.850;2024-03-08T09:27:09;16.43;;;14.93;;
41436;SDS011;27178;49.460;10.850;2024-03-08T09:29:37;17.20;;;15.40;;
41436;SDS011;27178;49.460;10.850;2024-03-08T09:32:07;18.23;;;16.33;;
41436;SDS011;27178;49.460;10.850;2024-03-08T09:34:38;16.30;;;14.70;;
41436;SDS011;27178;49.460;10.850;2024-03-08T09:37:06;16.10;;;14.37;;
41436;SDS011;27178;49.460;10.850;2024-03-08T09:39:36;16.03;;;14.43;;
41436;SDS011;27178;49.460;10.850;2024-03-08T09:42:04;16.83;;;15.17;;
41436;SDS011;27178;49.460;10.850;2024-03-08T09:44:33;16.37;;;14.50;;
41436;SDS011;27178;49.460;10.850;2024-03-08T09:47:02;15.60;;;13.90;;
41436;SDS011;27178;49.460;10.850;2024-03-08T09:49:34;16.07;;;14.50;;
41436;SDS011;27178;49.460;10.850;2024-03-08T09:52:04;19.15;;;13.80;;
41436;SDS011;27178;49.460;10.850;2024-03-08T09:54:34;15.07;;;13.57;;
41436;SDS011;27178;49.460;10.850;2024-03-08T09:57:03;15.00;;;13.40;;
41436;SDS011;27178;49.460;10.850;2024-03-08T09:59:31;14.50;;;13.00;;
41436;SDS011;27178;49.460;10.850;2024-03-08T10:02:14;15.47;;;13.97;;
41436;SDS011;27178;49.460;10.850;2024-03-08T10:04:44;15.20;;;13.60;;
41436;SDS011;27178;49.460;10.850;2024-03-08T10:07:14;16.73;;;14.27;;
41436;SDS011;27178;49.460;10.850;2024-03-08T10:09:42;15.47;;;13.87;;
41436;SDS011;27178;49.460;10.850;2024-03-08T10:12:16;15.73;;;14.02;;
41436;SDS011;27178;49.460;10.850;2024-03-08T10:14:46;15.40;;;13.55;;
41436;SDS011;27178;49.460;10.850;2024-03-08T10:17:14;15.07;;;13.57;;
41436;SDS011;27178;49.460;10.850;2024-03-08T10:19:50;15.13;;;13.57;;
41436;SDS011;27178;49.460;10.850;2024-03-08T10:22:20;14.63;;;13.13;;
41436;SDS011;27178;49.460;10.850;2024-03-08T10:24:48;15.95;;;14.32;;
41436;SDS011;27178;49.460;10.850;2024-03-08T10:27:17;17.10;;;15.40;;
41436;SDS011;27178;49.460;10.850;2024-03-08T10:29:46;17.70;;;13.83;;
41436;SDS011;27178;49.460;10.850;2024-03-08T10:32:15;14.70;;;13.13;;
41436;SDS011;27178;49.460;10.850;2024-03-08T10:34:44;14.75;;;13.27;;
41436;SDS011;27178;49.460;10.850;2024-03-08T10:37:15;14.00;;;12.57;;
41436;SDS011;27178;49.460;10.850;2024-03-08T10:39:50;14.45;;;12.85;;
41436;SDS011;27178;49.460;10.850;2024-03-08T10:42:38;14.10;;;12.60;;
41436;SDS011;27178;49.460;10.850;2024-03-08T10:45:11;13.50;;;12.18;;
41436;SDS011;27178;49.460;10.850;2024-03-08T10:47:42;13.43;;;12.13;;
41436;SDS011;27178;49.460;10.850;2024-03-08T10:50:18;14.02;;;12.10;;
41436;SDS011;27178;49.460;10.850;2024-03-08T10:52:50;13.52;;;11.43;;
41436;SDS011;27178;49.460;10.850;2024-03-08T10:55:20;15.32;;;11.15;;
41436;SDS011;27178;49.460;10.850;2024-03-08T10:57:49;11.60;;;10.50;;
41436;SDS011;27178;49.460;10.850;2024-03-08T11:00:18;12.00;;;10.80;;
41436;SDS011;27178;49.460;10.850;2024-03-08T11:02:53;13.00;;;11.70;;
41436;SDS011;27178;49.460;10.850;2024-03-08T11:05:31;11.35;;;10.25;;
41436;SDS011;27178;49.460;10.850;2024-03-08T11:08:17;12.18;;;10.98;;
41436;SDS011;27178;49.460;10.850;2024-03-08T11:10:49;11.55;;;10.43;;
41436;SDS011;27178;49.460;10.850;2024-03-08T11:13:34;12.32;;;11.02;;
41436;SDS011;27178;49.460;10.850;2024-03-08T11:16:06;11.48;;;10.32;;
41436;SDS011;27178;49.460;10.850;2024-03-08T11:18:36;12.55;;;10.35;;
41436;SDS011;27178;49.460;10.850;2024-03-08T11:21:05;11.27;;;10.05;;
41436;SDS011;27178;49.460;10.850;2024-03-08T11:23:40;11.48;;;10.38;;
41436;SDS011;27178;49.460;10.850;2024-03-08T11:26:18;10.15;;;9.20;;
41436;SDS011;27178;49.460;10.850;2024-03-08T11:28:47;10.55;;;9.45;;
41436;SDS011;27178;49.460;10.850;2024-03-08T11:31:22;10.55;;;9.55;;
41436;SDS011;27178;49.460;10.850;2024-03-08T11:33:52;9.93;;;8.93;;
41436;SDS011;27178;49.460;10.850;2024-03-08T11:36:22;9.65;;;8.50;;
41436;SDS011;27178;49.460;10.850;2024-03-08T11:38:53;9.57;;;8.68;;
41436;SDS011;27178;49.460;10.850;2024-03-08T11:41:22;9.80;;;8.80;;
41436;SDS011;27178;49.460;10.850;2024-03-08T11:44:01;8.57;;;7.78;;
41436;SDS011;27178;49.460;10.850;2024-03-08T11:46:31;9.35;;;8.10;;
41436;SDS011;27178;49.460;10.850;2024-03-08T11:49:00;8.40;;;7.60;;
41436;SDS011;27178;49.460;10.850;2024-03-08T11:51:29;8.52;;;7.72;;
41436;SDS011;27178;49.460;10.850;2024-03-08T11:54:00;9.57;;;8.68;;
41436;SDS011;27178;49.460;10.850;2024-03-08T11:56:29;8.43;;;7.63;;
41436;SDS011;27178;49.460;10.850;2024-03-08T11:58:58;7.90;;;7.10;;
41436;SDS011;27178;49.460;10.850;2024-03-08T12:01:28;8.32;;;7.43;;
41436;SDS011;27178;49.460;10.850;2024-03-08T12:03:58;7.38;;;6.68;;
41436;SDS011;27178;49.460;10.850;2024-03-08T12:06:35;7.05;;;6.45;;
41436;SDS011;27178;49.460;10.850;2024-03-08T12:09:11;6.85;;;6.25;;
41436;SDS011;27178;49.460;10.850;2024-03-08T12:11:39;7.05;;;6.45;;
41436;SDS011;27178;49.460;10.850;2024-03-08T12:14:09;6.57;;;5.95;;
41436;SDS011;27178;49.460;10.850;2024-03-08T12:16:38;6.07;;;5.50;;
41436;SDS011;27178;49.460;10.850;2024-03-08T12:19:06;6.20;;;5.57;;
41436;SDS011;27178;49.460;10.850;2024-03-08T12:21:36;6.07;;;5.55;;
41436;SDS011;27178;49.460;10.850;2024-03-08T12:24:05;5.43;;;4.93;;
41436;SDS011;27178;49.460;10.850;2024-03-08T12:26:37;5.82;;;5.32;;
41436;SDS011;27178;49.460;10.850;2024-03-08T12:29:17;4.95;;;4.53;;
41436;SDS011;27178;49.460;10.850;2024-03-08T12:31:50;4.85;;;4.40;;
41436;SDS011;27178;49.460;10.850;2024-03-08T12:34:20;5.57;;;5.07;;
41436;SDS011;27178;49.460;10.850;2024-03-08T12:36:49;5.63;;;5.13;;
41436;SDS011;27178;49.460;10.850;2024-03-08T12:39:21;5.82;;;5.25;;
41436;SDS011;27178;49.460;10.850;2024-03-08T12:41:55;5.05;;;4.63;;
41436;SDS011;27178;49.460;10.850;2024-03-08T12:44:26;5.20;;;4.70;;
41436;SDS011;27178;49.460;10.850;2024-03-08T12:46:55;6.25;;;5.25;;
41436;SDS011;27178;49.460;10.850;2024-03-08T12:49:26;6.72;;;5.93;;
41436;SDS011;27178;49.460;10.850;2024-03-08T12:51:54;8.60;;;6.65;;
41436;SDS011;27178;49.460;10.850;2024-03-08T12:54:22;7.72;;;6.93;;
41436;SDS011;27178;49.460;10.850;2024-03-08T12:56:51;7.43;;;6.72;;
41436;SDS011;27178;49.460;10.850;2024-03-08T12:59:22;7.45;;;6.75;;
41436;SDS011;27178;49.460;10.850;2024-03-08T13:01:51;8.05;;;7.25;;
41436;SDS011;27178;49.460;10.850;2024-03-08T13:04:20;7.25;;;6.40;;
41436;SDS011;27178;49.460;10.850;2024-03-08T13:06:49;7.30;;;6.60;;
41436;SDS011;27178;49.460;10.850;2024-03-08T13:09:20;7.22;;;6.53;;
41436;SDS011;27178;49.460;10.850;2024-03-08T13:11:50;6.80;;;6.18;;
41436;SDS011;27178;49.460;10.850;2024-03-08T13:14:20;6.82;;;6.15;;
41436;SDS011;27178;49.460;10.850;2024-03-08T13:16:50;7.25;;;6.55;;
41436;SDS011;27178;49.460;10.850;2024-03-08T13:19:18;7.13;;;6.43;;
41436;SDS011;27178;49.460;10.850;2024-03-08T13:21:48;5.75;;;5.18;;
41436;SDS011;27178;49.460;10.850;2024-03-08T13:24:17;6.97;;;6.30;;
41436;SDS011;27178;49.460;10.850;2024-03-08T13:26:47;6.63;;;5.93;;
41436;SDS011;27178;49.460;10.850;2024-03-08T13:29:16;6.43;;;5.90;;
41436;SDS011;27178;49.460;10.850;2024-03-08T13:31:46;6.10;;;5.60;;
41436;SDS011;27178;49.460;10.850;2024-03-08T13:34:18;6.55;;;5.93;;
41436;SDS011;27178;49.460;10.850;2024-03-08T13:36:54;6.45;;;5.85;;
41436;SDS011;27178;49.460;10.850;2024-03-08T13:39:27;7.07;;;6.28;;
41436;SDS011;27178;49.460;10.850;2024-03-08T13:42:00;6.68;;;6.03;;
41436;SDS011;27178;49.460;10.850;2024-03-08T13:44:31;5.80;;;5.20;;
41436;SDS011;27178;49.460;10.850;2024-03-08T13:47:01;6.75;;;5.63;;
41436;SDS011;27178;49.460;10.850;2024-03-08T13:49:31;7.47;;;6.75;;
41436;SDS011;27178;49.460;10.850;2024-03-08T13:51:59;5.80;;;5.20;;
41436;SDS011;27178;49.460;10.850;2024-03-08T13:54:28;6.32;;;5.72;;
41436;SDS011;27178;49.460;10.850;2024-03-08T13:56:58;6.50;;;5.70;;
41436;SDS011;27178;49.460;10.850;2024-03-08T13:59:27;6.50;;;5.90;;
41436;SDS011;27178;49.460;10.850;2024-03-08T14:01:55;7.50;;;5.47;;
41436;SDS011;27178;49.460;10.850;2024-03-08T14:04:27;6.30;;;5.72;;
41436;SDS011;27178;49.460;10.850;2024-03-08T14:06:56;6.75;;;6.05;;
41436;SDS011;27178;49.460;10.850;2024-03-08T14:09:30;6.32;;;5.72;;
41436;SDS011;27178;49.460;10.850;2024-03-08T14:11:58;5.80;;;5.30;;
41436;SDS011;27178;49.460;10.850;2024-03-08T14:14:26;6.63;;;5.75;;
41436;SDS011;27178;49.460;10.850;2024-03-08T14:16:55;5.68;;;5.15;;
41436;SDS011;27178;49.460;10.850;2024-03-08T14:19:25;6.57;;;5.97;;
41436;SDS011;27178;49.460;10.850;2024-03-08T14:21:55;6.22;;;5.30;;
41436;SDS011;27178;49.460;10.850;2024-03-08T14:24:23;6.35;;;5.75;;
41436;SDS011;27178;49.460;10.850;2024-03-08T14:26:51;5.75;;;5.15;;
41436;SDS011;27178;49.460;10.850;2024-03-08T14:29:19;6.20;;;5.70;;